Time;durP1;ratioP1;P1;durP2;ratioP2;P2;SDS_P1;SDS_P2;PMS_P1;PMS_P2;Temp;Humidity;BMP_temperature;BMP_pressure;BME280_temperature;BME280_humidity;BME280_pressure;Samples;Min_cycle;Max_cycle;Signal;HPM_P1;HPM_P2
2021/06/14 00:00:23;;;;;;;16.20;9.63;;;14.90;99.90;;;;;;5046567;28;20045;-68
2021/06/14 00:02:49;;;;;;;17.05;8.43;;;14.80;99.90;;;;;;5046831;28;20037;-68
2021/06/14 00:05:19;;;;;;;15.95;8.07;;;14.80;99.90;;;;;;5046801;28;20049;-68
2021/06/14 00:07:45;;;;;;;19.10;8.63;;;14.80;99.90;;;;;;5046920;28;20046;-67
2021/06/14 00:10:14;;;;;;;13.75;9.18;;;14.70;99.90;;;;;;5046778;28;20051;-68
2021/06/14 00:12:41;;;;;;;17.25;9.45;;;14.70;99.90;;;;;;5046532;28;20102;-68
2021/06/14 00:15:08;;;;;;;16.02;8.73;;;14.70;99.90;;;;;;5046307;28;20114;-68
2021/06/14 00:17:34;;;;;;;16.40;9.47;;;14.70;99.90;;;;;;5046793;28;20513;-68
2021/06/14 00:20:00;;;;;;;16.55;8.90;;;14.70;99.90;;;;;;5046867;28;20048;-68
2021/06/14 00:22:25;;;;;;;13.38;8.73;;;14.60;99.90;;;;;;5046710;28;20045;-68
2021/06/14 00:24:51;;;;;;;16.10;9.73;;;14.60;99.90;;;;;;5046009;28;20045;-68
2021/06/14 00:27:17;;;;;;;17.88;9.45;;;14.60;99.90;;;;;;5046478;28;20037;-68
2021/06/14 00:29:43;;;;;;;14.95;9.25;;;14.60;99.90;;;;;;5046459;28;20076;-67
2021/06/14 00:32:09;;;;;;;16.63;8.73;;;14.50;99.90;;;;;;5032577;28;20044;-67
2021/06/14 00:34:35;;;;;;;17.88;9.38;;;14.50;99.90;;;;;;5046120;28;20555;-68
2021/06/14 00:37:00;;;;;;;19.80;9.82;;;14.40;99.90;;;;;;5046057;28;20049;-68
2021/06/14 00:39:26;;;;;;;16.58;9.57;;;14.50;99.90;;;;;;5045988;28;20075;-68
2021/06/14 00:41:52;;;;;;;21.00;9.25;;;14.50;99.90;;;;;;5045566;28;20041;-68
2021/06/14 00:44:18;;;;;;;21.42;9.68;;;14.40;99.90;;;;;;5045898;28;20063;-68
2021/06/14 00:46:44;;;;;;;20.65;9.75;;;14.50;99.90;;;;;;5042228;28;20057;-68
2021/06/14 00:49:10;;;;;;;21.08;10.27;;;14.50;99.90;;;;;;5044481;28;20034;-69
2021/06/14 00:51:35;;;;;;;19.63;9.45;;;14.40;99.90;;;;;;5043548;28;20456;-69
2021/06/14 00:54:01;;;;;;;20.13;9.63;;;14.40;99.90;;;;;;5046107;28;20048;-68
2021/06/14 00:56:27;;;;;;;16.05;8.80;;;14.40;99.90;;;;;;5045241;28;20060;-68
2021/06/14 00:58:54;;;;;;;15.68;10.25;;;14.30;99.90;;;;;;5045603;28;20075;-68
2021/06/14 01:01:20;;;;;;;18.60;8.73;;;14.30;99.90;;;;;;5035178;28;20109;-68
2021/06/14 01:03:46;;;;;;;18.52;9.50;;;14.30;99.90;;;;;;5041813;28;20052;-68
2021/06/14 01:06:14;;;;;;;19.88;10.50;;;14.40;99.90;;;;;;5045990;28;20053;-68
2021/06/14 01:08:43;;;;;;;19.42;10.30;;;14.30;99.90;;;;;;5045624;28;20045;-68
2021/06/14 01:11:39;;;;;;;19.75;9.60;;;14.30;99.90;;;;;;5045581;28;20091;-68
2021/06/14 01:14:37;;;;;;;17.00;9.85;;;14.30;99.90;;;;;;5045390;28;20068;-68
2021/06/14 01:17:40;;;;;;;20.40;10.63;;;14.30;99.90;;;;;;5045312;28;20497;-68
2021/06/14 01:20:45;;;;;;;20.88;10.82;;;14.40;99.90;;;;;;5035187;28;20058;-68
2021/06/14 01:23:29;;;;;;;23.33;9.88;;;14.30;99.90;;;;;;5032789;28;20065;-68
2021/06/14 01:26:08;;;;;;;17.17;9.07;;;14.30;99.90;;;;;;5044997;28;20105;-68
2021/06/14 01:28:35;;;;;;;14.20;9.55;;;14.20;99.90;;;;;;5045269;28;20045;-68
2021/06/14 01:31:02;;;;;;;18.30;9.55;;;14.20;99.90;;;;;;5044392;28;20037;-68
2021/06/14 01:33:29;;;;;;;14.30;8.10;;;14.30;99.90;;;;;;5043504;28;20057;-67
2021/06/14 01:35:58;;;;;;;;;;;14.20;99.90;;;;;;5039825;28;20057;-67
2021/06/14 01:38:27;;;;;;;19.73;9.77;;;14.20;99.90;;;;;;5045142;28;19967;-68
2021/06/14 01:40:58;;;;;;;13.63;7.38;;;14.20;99.90;;;;;;5044860;28;20103;-68
2021/06/14 01:43:29;;;;;;;16.98;8.10;;;14.20;99.90;;;;;;5034454;28;20057;-68
2021/06/14 01:46:03;;;;;;;15.25;8.07;;;14.30;99.90;;;;;;5044364;28;20041;-69
2021/06/14 01:48:30;;;;;;;12.85;7.68;;;14.30;99.90;;;;;;5045184;28;20037;-68
2021/06/14 01:50:57;;;;;;;14.38;7.82;;;14.30;99.90;;;;;;5044553;28;20497;-68
2021/06/14 01:53:25;;;;;;;14.85;7.22;;;14.10;99.90;;;;;;5031253;28;20584;-68
2021/06/14 01:55:51;;;;;;;13.98;7.15;;;14.20;99.90;;;;;;5044610;28;20048;-67
2021/06/14 01:58:19;;;;;;;17.70;8.20;;;14.20;99.90;;;;;;5044586;28;20045;-68
2021/06/14 02:00:45;;;;;;;16.98;8.70;;;14.30;99.90;;;;;;5044642;28;20353;-68
2021/06/14 02:03:13;;;;;;;10.93;8.05;;;14.20;99.90;;;;;;5044566;28;20049;-68
2021/06/14 02:05:41;;;;;;;15.23;8.10;;;14.20;99.90;;;;;;5035778;28;20046;-68
2021/06/14 02:08:09;;;;;;;16.30;8.25;;;14.20;99.90;;;;;;5043138;28;20056;-68
2021/06/14 02:10:36;;;;;;;13.00;7.35;;;14.20;99.90;;;;;;5043430;28;20037;-68
2021/06/14 02:13:04;;;;;;;15.75;7.85;;;14.20;99.90;;;;;;5045073;28;20045;-67
2021/06/14 02:15:30;;;;;;;19.30;8.70;;;14.20;99.90;;;;;;5038199;28;20065;-68
2021/06/14 02:17:58;;;;;;;17.80;9.05;;;14.20;99.90;;;;;;5041676;28;20048;-68
2021/06/14 02:20:24;;;;;;;13.43;8.88;;;14.10;99.90;;;;;;5043932;28;20170;-68
2021/06/14 02:22:51;;;;;;;13.73;8.18;;;14.10;99.90;;;;;;5044268;28;20060;-68
2021/06/14 02:25:17;;;;;;;13.27;8.77;;;14.10;99.90;;;;;;5044654;28;20045;-68
2021/06/14 02:27:43;;;;;;;15.23;9.50;;;14.00;99.90;;;;;;5044566;28;20071;-68
2021/06/14 02:30:14;;;;;;;17.27;8.90;;;14.00;99.90;;;;;;5043438;28;20049;-68
2021/06/14 02:32:41;;;;;;;17.20;8.57;;;14.00;99.90;;;;;;5044028;28;20148;-68
2021/06/14 02:35:08;;;;;;;16.13;9.85;;;14.00;99.90;;;;;;5043988;28;20501;-68
2021/06/14 02:37:36;;;;;;;20.70;9.55;;;13.90;99.90;;;;;;5036241;28;20054;-68
2021/06/14 02:40:06;;;;;;;20.42;10.13;;;13.90;99.90;;;;;;5044009;28;20067;-67
2021/06/14 02:42:32;;;;;;;16.73;9.38;;;13.80;99.90;;;;;;5040765;28;20072;-68
2021/06/14 02:44:59;;;;;;;19.15;8.77;;;13.90;99.90;;;;;;5033041;28;20629;-68
2021/06/14 02:47:25;;;;;;;15.90;7.18;;;13.80;99.90;;;;;;5043633;28;20551;-68
2021/06/14 02:49:51;;;;;;;17.95;7.57;;;13.90;99.90;;;;;;5044088;28;20049;-68
2021/06/14 02:52:18;;;;;;;12.80;7.47;;;14.00;99.90;;;;;;5044177;28;20068;-68
2021/06/14 02:55:00;;;;;;;19.07;7.63;;;13.90;99.90;;;;;;5043237;28;20237;-68
2021/06/14 02:57:30;;;;;;;13.32;7.15;;;13.90;99.90;;;;;;5043838;28;20894;-68
2021/06/14 02:59:56;;;;;;;15.70;7.30;;;14.00;99.90;;;;;;5030726;28;20079;-68
2021/06/14 03:02:24;;;;;;;16.65;7.07;;;13.90;99.90;;;;;;5042196;28;20100;-68
2021/06/14 03:04:50;;;;;;;;;;;13.90;99.90;;;;;;5044366;28;20042;-68
2021/06/14 03:07:22;;;;;;;14.23;7.05;;;13.90;99.90;;;;;;5043921;28;19921;-68
2021/06/14 03:09:49;;;;;;;11.90;6.07;;;13.90;99.90;;;;;;5043414;28;20075;-68
2021/06/14 03:12:16;;;;;;;10.70;6.78;;;13.90;99.90;;;;;;5043265;28;20044;-68
2021/06/14 03:14:43;;;;;;;13.93;7.13;;;14.00;99.90;;;;;;5042945;28;20110;-68
2021/06/14 03:17:10;;;;;;;12.98;6.63;;;13.90;99.90;;;;;;5043800;28;20064;-68
2021/06/14 03:19:39;;;;;;;10.27;5.80;;;13.90;99.90;;;;;;5042836;28;20053;-68
2021/06/14 03:22:06;;;;;;;12.35;6.53;;;13.90;99.90;;;;;;5043241;28;20052;-68
2021/06/14 03:24:33;;;;;;;12.18;6.85;;;13.90;99.90;;;;;;5043114;28;20105;-68
2021/06/14 03:26:59;;;;;;;13.20;5.77;;;13.80;99.90;;;;;;5043683;28;20069;-68
2021/06/14 03:29:27;;;;;;;14.27;5.83;;;13.90;99.90;;;;;;5043564;28;20050;-68
2021/06/14 03:31:53;;;;;;;;;;;13.90;99.90;;;;;;5043994;28;20042;-68
2021/06/14 03:34:21;;;;;;;16.70;6.75;;;13.90;99.90;;;;;;5043087;28;20376;-68
2021/06/14 03:36:48;;;;;;;10.80;5.80;;;13.90;99.90;;;;;;5029000;28;20085;-68
2021/06/14 03:39:16;;;;;;;16.73;6.50;;;14.00;99.90;;;;;;5042882;28;20413;-68
2021/06/14 03:41:48;;;;;;;;;;;14.10;99.90;;;;;;5042066;28;20049;-68
2021/06/14 03:44:16;;;;;;;17.55;6.60;;;14.30;99.90;;;;;;5039592;28;19952;-68
2021/06/14 03:46:42;;;;;;;15.80;6.45;;;14.40;99.90;;;;;;5042885;28;20061;-68
2021/06/14 03:49:08;;;;;;;14.02;6.82;;;14.40;99.90;;;;;;5042597;28;20076;-68
2021/06/14 03:51:35;;;;;;;15.50;5.53;;;14.60;99.90;;;;;;5042917;28;20049;-68
2021/06/14 03:54:01;;;;;;;10.20;6.13;;;14.60;99.90;;;;;;5042659;28;20076;-68
2021/06/14 03:56:32;;;;;;;10.35;6.47;;;14.70;99.90;;;;;;5043374;28;20041;-68
2021/06/14 03:58:59;;;;;;;16.00;6.53;;;14.70;99.90;;;;;;5035834;28;20046;-68
2021/06/14 04:01:25;;;;;;;13.70;6.40;;;14.70;99.90;;;;;;5042276;28;20059;-68
2021/06/14 04:06:37;;;;;;;11.50;5.90;;;14.70;99.90;;;;;;5042665;28;20449;-68
2021/06/14 04:09:04;;;;;;;11.80;6.40;;;14.80;99.90;;;;;;5042798;28;20125;-70
2021/06/14 04:11:30;;;;;;;13.52;6.13;;;14.80;99.90;;;;;;5043344;28;20064;-68
2021/06/14 04:13:56;;;;;;;12.55;6.65;;;14.90;99.90;;;;;;5042772;28;20049;-68
2021/06/14 04:16:22;;;;;;;13.50;5.60;;;14.90;99.90;;;;;;5041967;28;20040;-68
2021/06/14 04:18:49;;;;;;;11.23;5.68;;;14.90;99.90;;;;;;5042389;28;20049;-68
2021/06/14 04:21:15;;;;;;;9.53;5.90;;;14.90;99.90;;;;;;5042578;28;20045;-69
2021/06/14 04:23:42;;;;;;;12.13;5.93;;;14.90;99.90;;;;;;5043161;28;20053;-68
2021/06/14 04:26:08;;;;;;;15.57;5.93;;;14.90;99.90;;;;;;5042286;28;20049;-68
2021/06/14 04:28:34;;;;;;;13.00;5.15;;;15.00;99.90;;;;;;5042822;28;20037;-68
2021/06/14 04:31:00;;;;;;;11.48;6.07;;;15.00;99.90;;;;;;5042020;28;20045;-69
2021/06/14 04:33:26;;;;;;;12.38;5.82;;;15.00;99.90;;;;;;5045821;28;20170;-69
2021/06/14 04:35:52;;;;;;;12.55;5.25;;;15.10;99.90;;;;;;5044780;28;20944;-68
2021/06/14 04:38:19;;;;;;;14.93;6.28;;;15.20;99.90;;;;;;5045975;28;20163;-68
2021/06/14 04:40:45;;;;;;;11.10;5.83;;;15.30;99.90;;;;;;5046038;28;20045;-68
2021/06/14 04:43:10;;;;;;;11.98;5.65;;;15.30;99.90;;;;;;5045987;28;20063;-68
2021/06/14 04:45:36;;;;;;;11.88;6.28;;;15.40;99.90;;;;;;5046175;28;20053;-69
2021/06/14 04:48:02;;;;;;;13.05;5.45;;;15.40;99.90;;;;;;5046393;28;20132;-68
2021/06/14 04:50:28;;;;;;;13.38;5.82;;;15.50;99.90;;;;;;5045868;28;20052;-68
2021/06/14 04:52:55;;;;;;;13.18;5.40;;;15.70;99.90;;;;;;5044575;28;20049;-69
2021/06/14 04:55:21;;;;;;;12.90;5.78;;;15.70;99.90;;;;;;5045718;28;20061;-68
2021/06/14 04:57:47;;;;;;;12.10;5.10;;;15.80;99.90;;;;;;5045822;28;20151;-69
2021/06/14 05:00:13;;;;;;;12.00;5.18;;;15.90;99.90;;;;;;5044996;28;20421;-68
2021/06/14 05:02:39;;;;;;;9.85;4.60;;;16.10;99.90;;;;;;5046431;28;20497;-68
2021/06/14 05:05:06;;;;;;;15.73;4.93;;;16.20;99.90;;;;;;5045196;28;20046;-68
2021/06/14 05:07:32;;;;;;;10.07;4.50;;;16.20;99.90;;;;;;5045711;28;20037;-69
2021/06/14 05:09:58;;;;;;;11.23;4.65;;;16.40;99.90;;;;;;5045620;28;20045;-68
2021/06/14 05:12:24;;;;;;;11.67;4.83;;;16.50;99.90;;;;;;5045934;28;20045;-69
2021/06/14 05:14:50;;;;;;;8.73;4.13;;;16.60;99.90;;;;;;5045089;28;20061;-68
2021/06/14 05:17:17;;;;;;;12.68;5.75;;;16.70;99.90;;;;;;5045483;28;20042;-69
2021/06/14 05:19:47;;;;;;;8.05;4.22;;;16.80;99.90;;;;;;5045099;28;20049;-69
2021/06/14 05:22:13;;;;;;;9.50;4.78;;;17.00;99.90;;;;;;5044920;28;20083;-69
2021/06/14 05:24:38;;;;;;;9.90;5.00;;;17.10;99.90;;;;;;5045791;28;20046;-67
2021/06/14 05:27:05;;;;;;;8.65;4.38;;;17.10;99.90;;;;;;5045399;28;20045;-69
2021/06/14 05:29:31;;;;;;;17.05;5.03;;;17.30;99.90;;;;;;5044591;28;20496;-68
2021/06/14 05:31:57;;;;;;;12.65;4.30;;;17.30;99.90;;;;;;5045061;28;20044;-68
2021/06/14 05:34:23;;;;;;;9.07;5.18;;;17.50;99.90;;;;;;5044742;28;20083;-68
2021/06/14 05:36:49;;;;;;;9.43;4.82;;;17.50;99.90;;;;;;5045830;28;20061;-69
2021/06/14 05:39:15;;;;;;;9.27;4.55;;;17.60;99.90;;;;;;5044917;28;20038;-69
2021/06/14 05:41:41;;;;;;;10.60;4.50;;;17.80;99.90;;;;;;5045121;28;20110;-69
2021/06/14 05:44:07;;;;;;;6.50;4.28;;;17.80;99.90;;;;;;5044509;28;20060;-69
2021/06/14 05:46:32;;;;;;;13.27;4.78;;;18.00;99.90;;;;;;5045030;28;20041;-69
2021/06/14 05:48:58;;;;;;;20.63;4.25;;;18.00;99.90;;;;;;5045266;28;20063;-68
2021/06/14 05:51:24;;;;;;;11.35;5.22;;;18.20;99.90;;;;;;5044480;28;20107;-68
2021/06/14 05:53:50;;;;;;;9.43;4.45;;;18.30;99.90;;;;;;5044816;28;20056;-68
2021/06/14 05:56:16;;;;;;;13.30;4.78;;;18.40;99.90;;;;;;5044804;28;20045;-68
2021/06/14 05:58:43;;;;;;;11.20;4.72;;;18.50;99.90;;;;;;5044785;28;20302;-69
2021/06/14 06:01:09;;;;;;;11.10;5.05;;;18.70;99.90;;;;;;5044541;28;20045;-68
2021/06/14 06:03:35;;;;;;;10.05;4.88;;;18.80;99.90;;;;;;5044479;28;20042;-69
2021/06/14 06:06:00;;;;;;;8.98;4.47;;;18.90;99.90;;;;;;5044365;28;20049;-69
2021/06/14 06:08:26;;;;;;;9.18;4.50;;;19.10;99.90;;;;;;5044261;28;20041;-68
2021/06/14 06:10:52;;;;;;;10.18;4.43;;;19.30;99.90;;;;;;5044349;28;20077;-70
2021/06/14 06:13:18;;;;;;;10.30;5.03;;;19.50;99.90;;;;;;5044585;28;20049;-68
2021/06/14 06:15:44;;;;;;;7.38;4.60;;;19.70;99.90;;;;;;5043976;28;20041;-68
2021/06/14 06:18:11;;;;;;;9.85;4.53;;;19.90;99.90;;;;;;5044117;28;20053;-68
2021/06/14 06:20:36;;;;;;;9.52;4.88;;;19.80;99.10;;;;;;5043731;28;20076;-68
2021/06/14 06:23:04;;;;;;;10.50;5.22;;;19.80;99.90;;;;;;5044279;28;20049;-69
2021/06/14 06:25:30;;;;;;;7.45;4.07;;;19.80;98.80;;;;;;5044453;28;20076;-68
2021/06/14 06:27:56;;;;;;;10.18;4.93;;;19.80;98.80;;;;;;5044063;28;20045;-68
2021/06/14 06:30:26;;;;;;;13.48;4.60;;;19.90;99.80;;;;;;5043591;28;20400;-68
2021/06/14 06:32:52;;;;;;;11.70;4.05;;;20.10;99.90;;;;;;5043668;28;20496;-69
2021/06/14 06:35:19;;;;;;;13.13;4.47;;;20.30;99.40;;;;;;5043617;28;20456;-68
2021/06/14 06:37:45;;;;;;;12.33;5.63;;;20.30;98.90;;;;;;5044212;28;20053;-68
2021/06/14 06:40:13;;;;;;;13.55;4.93;;;20.40;99.00;;;;;;5043942;28;20308;-69
2021/06/14 06:42:40;;;;;;;15.25;4.68;;;20.50;98.90;;;;;;5043627;28;20041;-68
2021/06/14 06:45:08;;;;;;;11.95;5.03;;;20.60;98.00;;;;;;5043339;28;20056;-68
2021/06/14 06:47:34;;;;;;;6.78;3.88;;;20.60;97.00;;;;;;5044003;28;20070;-68
2021/06/14 06:50:00;;;;;;;9.18;3.65;;;20.70;96.30;;;;;;5044028;28;20041;-68
2021/06/14 06:52:26;;;;;;;11.48;3.90;;;20.90;96.90;;;;;;5043940;28;20045;-68
2021/06/14 06:54:52;;;;;;;8.82;4.32;;;20.90;96.50;;;;;;5042715;28;20049;-68
2021/06/14 06:57:20;;;;;;;8.05;3.50;;;21.00;97.70;;;;;;5043334;28;20113;-69
2021/06/14 06:59:46;;;;;;;7.38;4.47;;;21.20;97.60;;;;;;5042855;28;20046;-68
2021/06/14 07:02:11;;;;;;;10.90;4.15;;;21.30;96.30;;;;;;5043845;28;20124;-68
2021/06/14 07:04:37;;;;;;;10.23;3.97;;;21.40;97.00;;;;;;5043599;28;20049;-69
2021/06/14 07:07:04;;;;;;;14.10;3.83;;;21.30;95.60;;;;;;5043452;28;20069;-69
2021/06/14 07:09:30;;;;;;;8.07;3.83;;;21.40;95.00;;;;;;5043371;28;20100;-68
2021/06/14 07:11:56;;;;;;;9.23;4.93;;;21.60;96.90;;;;;;5042630;28;20061;-69
2021/06/14 07:14:23;;;;;;;10.10;3.92;;;21.70;95.00;;;;;;5036248;28;20099;-69
2021/06/14 07:16:49;;;;;;;9.17;4.53;;;21.80;96.20;;;;;;5043729;28;20045;-68
2021/06/14 07:19:15;;;;;;;10.02;4.05;;;21.80;94.90;;;;;;5043849;28;20398;-69
2021/06/14 07:21:41;;;;;;;9.38;3.97;;;21.90;94.90;;;;;;5043467;28;20041;-68
2021/06/14 07:24:07;;;;;;;10.02;4.03;;;22.00;94.60;;;;;;5043172;28;20199;-68
2021/06/14 07:26:34;;;;;;;10.10;4.90;;;22.00;93.90;;;;;;5043939;28;20045;-69
2021/06/14 07:29:00;;;;;;;7.60;3.60;;;22.00;93.70;;;;;;5043409;28;20042;-69
2021/06/14 07:31:27;;;;;;;10.00;4.30;;;22.10;91.50;;;;;;5042992;28;20052;-69
2021/06/14 07:33:57;;;;;;;12.55;4.60;;;22.00;90.60;;;;;;5042708;28;20042;-70
2021/06/14 07:36:23;;;;;;;10.93;4.43;;;22.00;91.40;;;;;;5041836;28;20049;-69
2021/06/14 07:38:49;;;;;;;14.10;3.67;;;22.00;91.90;;;;;;5039001;28;20052;-69
2021/06/14 07:41:15;;;;;;;11.98;4.50;;;22.10;92.30;;;;;;5040378;28;20065;-69
2021/06/14 07:43:41;;;;;;;7.63;3.50;;;22.00;91.00;;;;;;5042112;28;20052;-69
2021/06/14 07:46:07;;;;;;;9.75;4.07;;;22.00;92.30;;;;;;5033786;28;20051;-70
2021/06/14 07:48:33;;;;;;;7.07;3.85;;;22.10;92.00;;;;;;5037664;28;20041;-69
2021/06/14 07:50:59;;;;;;;6.53;3.30;;;22.20;92.40;;;;;;5043750;28;20046;-69
2021/06/14 07:53:25;;;;;;;5.50;3.35;;;22.30;92.10;;;;;;5042723;28;20052;-69
2021/06/14 07:55:52;;;;;;;5.80;3.67;;;22.40;91.20;;;;;;5043260;28;20049;-70
2021/06/14 07:58:18;;;;;;;10.85;4.07;;;22.40;91.50;;;;;;5042508;28;20327;-69
2021/06/14 08:00:44;;;;;;;8.90;4.00;;;22.60;91.60;;;;;;5042669;28;20120;-70
2021/06/14 08:03:10;;;;;;;10.73;4.05;;;22.80;91.10;;;;;;5043054;28;20045;-69
2021/06/14 08:05:36;;;;;;;5.80;3.90;;;22.70;89.50;;;;;;5043438;28;20103;-71
2021/06/14 08:08:03;;;;;;;9.45;3.70;;;22.70;85.20;;;;;;5046053;28;20042;-71
2021/06/14 08:10:29;;;;;;;7.60;3.73;;;22.60;87.90;;;;;;5047226;28;20065;-70
2021/06/14 08:12:55;;;;;;;10.75;4.00;;;22.70;88.30;;;;;;5047010;28;20312;-70
2021/06/14 08:15:23;;;;;;;7.80;3.92;;;22.60;88.90;;;;;;5046903;28;20042;-70
2021/06/14 08:17:50;;;;;;;10.23;3.95;;;22.80;90.90;;;;;;5043814;28;20440;-70
2021/06/14 08:20:31;;;;;;;11.05;3.42;;;22.90;90.20;;;;;;5046819;28;20098;-70
2021/06/14 08:25:41;;;;;;;8.32;4.05;;;22.90;85.10;;;;;;5044473;28;20049;-69
2021/06/14 08:28:07;;;;;;;5.22;3.40;;;23.10;85.10;;;;;;5046263;28;20595;-63
2021/06/14 08:30:37;;;;;;;6.32;3.40;;;23.00;88.20;;;;;;5043330;28;20390;-62
2021/06/14 08:33:03;;;;;;;8.80;3.80;;;23.10;84.60;;;;;;5046876;28;20061;-62
2021/06/14 08:35:30;;;;;;;9.27;3.63;;;23.10;84.40;;;;;;5043709;28;20045;-62
2021/06/14 08:37:56;;;;;;;8.13;3.30;;;23.10;84.20;;;;;;5046537;28;20068;-62
2021/06/14 08:40:26;;;;;;;10.80;3.38;;;23.10;82.60;;;;;;5045346;28;20312;-62
2021/06/14 08:42:52;;;;;;;9.95;3.28;;;23.00;80.90;;;;;;5032109;28;20046;-61
2021/06/14 08:45:19;;;;;;;7.32;3.63;;;23.00;83.60;;;;;;5044395;28;20101;-62
2021/06/14 08:47:47;;;;;;;5.78;2.97;;;23.20;90.10;;;;;;5040171;28;20038;-61
2021/06/14 08:50:15;;;;;;;7.35;3.85;;;23.10;79.20;;;;;;5041412;28;20096;-62
2021/06/14 08:52:42;;;;;;;6.80;3.78;;;23.10;82.70;;;;;;5041658;28;20041;-61
2021/06/14 08:55:11;;;;;;;9.63;3.30;;;23.10;81.30;;;;;;5044399;28;20049;-62
2021/06/14 08:57:38;;;;;;;9.63;3.58;;;23.10;82.80;;;;;;5041989;28;20417;-61
2021/06/14 09:00:09;;;;;;;6.47;3.35;;;23.20;83.60;;;;;;5033450;28;20097;-62
2021/06/14 09:02:35;;;;;;;10.48;4.25;;;23.10;78.10;;;;;;5045081;28;20038;-62
2021/06/14 09:05:01;;;;;;;14.05;4.00;;;23.00;83.20;;;;;;5042768;28;20037;-62
2021/06/14 09:07:29;;;;;;;7.68;3.78;;;23.00;82.40;;;;;;5040164;28;20041;-62
2021/06/14 09:09:54;;;;;;;8.50;4.53;;;23.00;83.70;;;;;;5042903;28;20053;-62
2021/06/14 09:12:20;;;;;;;11.18;4.57;;;23.00;84.10;;;;;;5044675;28;20098;-62
2021/06/14 09:14:46;;;;;;;13.55;3.90;;;23.00;83.80;;;;;;5042395;28;20049;-61
2021/06/14 09:17:14;;;;;;;6.50;3.88;;;23.20;85.50;;;;;;5040076;28;20037;-62
2021/06/14 09:19:51;;;;;;;17.10;4.85;;;23.10;80.10;;;;;;5041327;28;20067;-62
2021/06/14 09:22:22;;;;;;;11.35;3.50;;;23.20;85.80;;;;;;5041111;28;20045;-67
2021/06/14 09:25:09;;;;;;;12.15;4.78;;;23.40;88.40;;;;;;5043531;28;20206;-63
2021/06/14 09:27:36;;;;;;;12.57;4.30;;;23.60;84.90;;;;;;5035449;28;20034;-59
2021/06/14 09:30:21;;;;;;;12.30;4.80;;;23.40;76.30;;;;;;5041733;28;20041;-59
2021/06/14 09:32:58;;;;;;;11.02;4.88;;;23.40;82.80;;;;;;5039912;28;20065;-59
2021/06/14 09:35:35;;;;;;;7.38;3.45;;;23.40;76.90;;;;;;5042741;28;20041;-61
2021/06/14 09:38:05;;;;;;;11.88;4.78;;;23.40;80.70;;;;;;5036379;28;20045;-60
2021/06/14 09:40:33;;;;;;;11.88;4.20;;;23.60;83.70;;;;;;5044528;28;20053;-62
2021/06/14 09:42:59;;;;;;;;;;;23.60;81.30;;;;;;5033584;28;20080;-60
2021/06/14 09:45:25;;;;;;;10.63;4.57;;;23.60;83.00;;;;;;5043750;28;20470;-59
2021/06/14 09:47:54;;;;;;;14.43;4.82;;;23.80;86.30;;;;;;5040180;28;20461;-60
2021/06/14 09:50:26;;;;;;;9.27;3.95;;;23.70;82.60;;;;;;5040939;28;20041;-59
2021/06/14 09:53:23;;;;;;;10.48;4.30;;;23.70;81.40;;;;;;5041048;28;20041;-61
2021/06/14 09:55:51;;;;;;;12.43;4.65;;;23.70;79.70;;;;;;5032700;28;20045;-60
2021/06/14 09:58:26;;;;;;;15.00;5.03;;;23.80;82.80;;;;;;5030573;28;20061;-61
2021/06/14 10:01:03;;;;;;;11.80;5.07;;;23.70;78.00;;;;;;5043572;28;20049;-62
2021/06/14 10:03:43;;;;;;;8.00;4.00;;;23.50;78.20;;;;;;5039730;28;20038;-64
2021/06/14 10:06:09;;;;;;;8.05;4.53;;;23.60;78.80;;;;;;5037016;28;20041;-61
2021/06/14 10:08:35;;;;;;;10.18;4.53;;;23.70;82.40;;;;;;5038375;28;20117;-58
2021/06/14 10:11:11;;;;;;;8.30;3.73;;;23.80;82.20;;;;;;5042320;28;20045;-63
2021/06/14 10:13:40;;;;;;;7.63;4.32;;;23.90;84.20;;;;;;5035208;28;20316;-65
2021/06/14 10:16:12;;;;;;;9.60;3.72;;;24.10;80.90;;;;;;5030680;28;20037;-63
2021/06/14 10:18:44;;;;;;;16.02;4.72;;;24.00;74.30;;;;;;5036179;28;20509;-63
2021/06/14 10:21:27;;;;;;;9.77;4.45;;;23.90;75.30;;;;;;5038777;28;20034;-64
2021/06/14 10:23:55;;;;;;;10.73;4.03;;;24.00;77.50;;;;;;5033987;28;20102;-61
2021/06/14 10:26:29;;;;;;;8.48;3.38;;;24.10;74.30;;;;;;5042307;28;20064;-65
2021/06/14 10:28:55;;;;;;;7.93;4.05;;;24.20;79.50;;;;;;5037676;28;20059;-60
2021/06/14 10:31:22;;;;;;;11.70;3.83;;;24.20;72.80;;;;;;5043076;28;20033;-63
2021/06/14 10:33:53;;;;;;;7.80;3.78;;;24.30;72.00;;;;;;5042778;28;20057;-61
2021/06/14 10:36:25;;;;;;;11.65;4.53;;;24.20;67.50;;;;;;5039775;28;20041;-66
2021/06/14 10:38:51;;;;;;;9.70;4.00;;;24.30;67.70;;;;;;5033655;28;20117;-59
2021/06/14 10:41:19;;;;;;;8.43;3.95;;;24.20;67.00;;;;;;5039354;28;20041;-59
2021/06/14 10:43:45;;;;;;;;;;;24.20;65.90;;;;;;5039061;28;20543;-69
2021/06/14 10:46:12;;;;;;;10.70;4.10;;;24.30;69.60;;;;;;5041521;28;19921;-62
2021/06/14 10:48:38;;;;;;;;;;;24.30;67.60;;;;;;5039480;28;20429;-65
2021/06/14 10:51:14;;;;;;;7.22;3.45;;;24.40;65.40;;;;;;5043374;28;19928;-60
2021/06/14 10:53:42;;;;;;;8.80;3.95;;;24.70;69.40;;;;;;5041471;28;20051;-59
2021/06/14 10:56:08;;;;;;;10.10;4.45;;;24.70;68.00;;;;;;5034428;28;20092;-59
2021/06/14 10:58:35;;;;;;;8.95;3.97;;;24.70;67.20;;;;;;5035979;28;20041;-59
2021/06/14 11:01:16;;;;;;;10.80;4.38;;;24.80;66.70;;;;;;5028402;28;20050;-62
2021/06/14 11:03:47;;;;;;;13.05;3.95;;;24.90;66.50;;;;;;5035692;28;20050;-59
2021/06/14 11:06:39;;;;;;;11.75;3.90;;;24.80;62.90;;;;;;5042111;28;20042;-61
2021/06/14 11:09:13;;;;;;;9.57;4.22;;;24.90;61.70;;;;;;5042122;28;20552;-60
2021/06/14 11:11:47;;;;;;;8.93;3.88;;;25.10;62.40;;;;;;5034402;28;20099;-61
2021/06/14 11:14:13;;;;;;;7.10;3.55;;;25.20;57.40;;;;;;5041349;28;20045;-61
2021/06/14 11:16:40;;;;;;;12.18;4.22;;;25.20;59.20;;;;;;5041152;28;20052;-62
2021/06/14 11:19:08;;;;;;;10.02;4.25;;;25.20;58.20;;;;;;5040339;28;20045;-60
2021/06/14 11:21:34;;;;;;;6.22;3.92;;;25.20;58.10;;;;;;5035869;28;20116;-60
2021/06/14 11:24:07;;;;;;;12.60;3.77;;;25.30;58.30;;;;;;5035365;28;20049;-58
2021/06/14 11:26:33;;;;;;;8.70;4.10;;;25.30;58.50;;;;;;5033979;28;20050;-58
2021/06/14 11:29:10;;;;;;;9.93;4.55;;;25.50;59.50;;;;;;5041667;28;20042;-56
2021/06/14 11:31:37;;;;;;;10.27;4.70;;;25.70;60.60;;;;;;5034879;28;20050;-57
2021/06/14 11:34:03;;;;;;;9.85;4.35;;;26.00;61.10;;;;;;5039094;28;20044;-57
2021/06/14 11:36:32;;;;;;;9.32;4.35;;;26.20;59.10;;;;;;5039723;28;20599;-56
2021/06/14 11:38:59;;;;;;;11.02;5.38;;;26.60;58.80;;;;;;5038944;28;20052;-57
2021/06/14 11:41:32;;;;;;;8.73;4.22;;;26.50;58.50;;;;;;5030914;28;20049;-57
2021/06/14 11:44:19;;;;;;;6.15;3.75;;;26.60;58.00;;;;;;5041004;28;20520;-57
2021/06/14 11:46:46;;;;;;;10.23;5.03;;;26.50;54.40;;;;;;5040747;28;20053;-57
2021/06/14 11:49:12;;;;;;;10.55;4.10;;;26.80;56.60;;;;;;5040142;28;20048;-57
2021/06/14 11:51:38;;;;;;;8.68;4.38;;;27.00;56.90;;;;;;5037428;28;20045;-57
2021/06/14 11:54:06;;;;;;;15.30;4.75;;;27.50;58.40;;;;;;5042261;28;20049;-56
2021/06/14 11:56:35;;;;;;;9.00;4.65;;;27.60;57.10;;;;;;5039280;28;20057;-57
2021/06/14 11:59:04;;;;;;;8.35;5.13;;;27.40;54.90;;;;;;5030166;28;20060;-57
2021/06/14 12:01:33;;;;;;;11.77;4.50;;;27.30;55.90;;;;;;5038369;28;20038;-57
2021/06/14 12:04:00;;;;;;;9.63;5.30;;;28.00;58.20;;;;;;5035808;28;20053;-57
2021/06/14 12:06:27;;;;;;;10.05;5.13;;;27.60;54.00;;;;;;5039474;28;20397;-57
2021/06/14 12:09:05;;;;;;;13.95;5.25;;;27.90;55.80;;;;;;5031605;28;20039;-57
2021/06/14 12:11:31;;;;;;;10.73;5.35;;;28.30;55.90;;;;;;5038908;28;20042;-56
2021/06/14 12:13:56;;;;;;;10.50;6.17;;;28.30;52.70;;;;;;5039281;28;20188;-57
2021/06/14 12:16:25;;;;;;;9.80;5.37;;;28.40;52.80;;;;;;5036858;28;20041;-63
2021/06/14 12:19:01;;;;;;;7.75;5.53;;;28.60;53.70;;;;;;5035000;28;20077;-58
2021/06/14 12:21:26;;;;;;;12.13;6.15;;;28.50;51.90;;;;;;5037680;28;20052;-58
2021/06/14 12:23:52;;;;;;;9.07;6.00;;;28.70;50.80;;;;;;5037157;28;20046;-60
2021/06/14 12:26:18;;;;;;;13.77;5.80;;;28.50;51.10;;;;;;5035690;28;20045;-59
2021/06/14 12:28:44;;;;;;;23.90;6.05;;;28.10;51.00;;;;;;5035080;28;20068;-59
2021/06/14 12:31:13;;;;;;;10.10;5.93;;;28.10;51.70;;;;;;5036014;28;20041;-59
2021/06/14 12:33:42;;;;;;;14.65;6.55;;;28.00;51.70;;;;;;5033570;28;20041;-59
2021/06/14 12:36:12;;;;;;;11.77;5.05;;;28.10;50.40;;;;;;5032940;28;20100;-58
2021/06/14 12:38:50;;;;;;;12.13;7.07;;;28.20;52.10;;;;;;5037837;28;20088;-58
2021/06/14 12:41:17;;;;;;;13.05;6.97;;;28.40;51.10;;;;;;5042213;28;20041;-59
2021/06/14 12:43:43;;;;;;;15.75;8.10;;;28.40;50.90;;;;;;5037824;28;20092;-58
2021/06/14 12:46:09;;;;;;;14.50;6.97;;;28.50;51.10;;;;;;5033675;28;20082;-67
2021/06/14 12:48:35;;;;;;;13.20;8.37;;;29.00;50.30;;;;;;5035945;28;20046;-67
2021/06/14 12:51:01;;;;;;;11.17;6.37;;;;;;;;;;5034596;28;20079;-67